Wilton, New Hampshire
Current Conditions -  °F | °C
As of 2:51 PM on Thursday 30 Oct 2014 (Local Time) from KASH Reporting Station
Overcast Overcast  
Wind Chill: 55°   Ceiling: 6500
Heat Index: 55°   Visibility: 10mi
Dew Point: 38°   Wind: 10mph
Humidity: 53%   Direction: 320°NW
Pressure: 29.92"   Gusts: NA
Location:  42.85°N, 71.74°W
Report Text: KASH 301851Z 32009KT 10SM OVC065 13/03 A2992 RMK AO2 T01270033 SLP383
Loading
Personal Weather Stations






























Interactive Weather Map
Tropical Storm Tracking
New forecast layout! Learn more

10-Day Weather Forecast

Advertisements
Track Severe Weather on mobile